createdAt,value
2019-01-19T00:00:24.573Z,-0.60
2019-01-19T00:02:59.009Z,-0.60
2019-01-19T00:05:42.482Z,-0.70
2019-01-19T00:08:14.082Z,-0.70
2019-01-19T00:10:54.833Z,-0.70
2019-01-19T00:13:38.369Z,-0.70
2019-01-19T00:16:12.653Z,-0.70
2019-01-19T00:18:59.226Z,-0.70
2019-01-19T00:21:30.773Z,-0.60
2019-01-19T00:24:10.828Z,-0.70
2019-01-19T00:27:02.089Z,-0.70
2019-01-19T00:29:36.138Z,-0.70
2019-01-19T00:32:10.444Z,-0.60
2019-01-19T00:34:53.977Z,-0.60
2019-01-19T00:37:25.533Z,-0.60
2019-01-19T00:39:59.917Z,-0.50
2019-01-19T00:42:34.208Z,-0.60
2019-01-19T00:45:17.884Z,-0.50
2019-01-19T00:47:58.337Z,-0.60
2019-01-19T00:50:46.352Z,-0.60
2019-01-19T00:53:20.513Z,-0.60
2019-01-19T00:55:52.042Z,-0.60
2019-01-19T00:58:24.414Z,-0.70
2019-01-19T01:01:04.973Z,-0.70
2019-01-19T01:03:56.109Z,-0.80
2019-01-19T01:06:39.706Z,-0.70
2019-01-19T01:09:26.044Z,-0.80
2019-01-19T01:11:58.901Z,-0.90
2019-01-19T01:14:42.421Z,-1.00
2019-01-19T01:17:13.941Z,-1.10
2019-01-19T01:20:00.449Z,-1.10
2019-01-19T01:22:41.176Z,-1.10
2019-01-19T01:25:24.864Z,-1.20
2019-01-19T01:28:08.445Z,-1.10
2019-01-19T01:30:51.851Z,-1.10
2019-01-19T01:33:29.332Z,-1.10
2019-01-19T01:36:35.768Z,-1.10
2019-01-19T01:39:29.953Z,-1.10
2019-01-19T01:42:16.321Z,-0.90
2019-01-19T01:44:53.381Z,-0.80
2019-01-19T01:47:56.549Z,-0.90
2019-01-19T01:50:39.845Z,-0.70
2019-01-19T01:53:14.134Z,-0.60
2019-01-19T01:55:42.725Z,-0.50
2019-01-19T01:58:16.889Z,-0.50
2019-01-19T02:01:00.261Z,-0.50
2019-01-19T02:03:46.490Z,-0.50
2019-01-19T02:06:37.679Z,-0.40
2019-01-19T02:09:24.017Z,-0.50
2019-01-19T02:12:04.509Z,-0.50
2019-01-19T02:14:42.141Z,-0.50
2019-01-19T02:17:16.526Z,-0.50
2019-01-19T02:19:48.048Z,-0.50
2019-01-19T02:22:31.630Z,-0.40
2019-01-19T02:25:15.093Z,-0.50
2019-01-19T02:28:01.365Z,-0.60
2019-01-19T02:30:54.110Z,-0.60
2019-01-19T02:33:42.369Z,-0.80
2019-01-19T02:36:19.518Z,-0.90
2019-01-19T02:38:57.160Z,-0.90
2019-01-19T02:41:45.193Z,-0.90
2019-01-19T02:44:28.582Z,-0.90
2019-01-19T02:47:06.321Z,-0.90
2019-01-19T02:49:56.181Z,-0.80
2019-01-19T02:52:39.661Z,-0.80
2019-01-19T02:55:20.205Z,-0.70
2019-01-19T02:58:10.741Z,-0.80
2019-01-19T03:01:03.145Z,-0.80
2019-01-19T03:03:37.362Z,-1.00
2019-01-19T03:06:14.697Z,-1.00
2019-01-19T03:09:07.081Z,-1.00
2019-01-19T03:11:41.340Z,-1.00
2019-01-19T03:14:24.580Z,-1.00
2019-01-19T03:17:10.884Z,-1.10
2019-01-19T03:19:51.070Z,-1.20
2019-01-19T03:22:25.504Z,-1.30
2019-01-19T03:25:15.902Z,-1.40
2019-01-19T03:27:50.069Z,-1.40
2019-01-19T03:30:27.383Z,-1.40
2019-01-19T03:33:15.347Z,-1.40
2019-01-19T03:35:52.265Z,-1.40
2019-01-19T03:38:42.613Z,-1.30
2019-01-19T03:41:22.672Z,-1.30
2019-01-19T03:44:08.492Z,-1.20
2019-01-19T03:46:40.094Z,-1.20
2019-01-19T03:49:23.588Z,-1.20
2019-01-19T03:52:03.848Z,-1.20
2019-01-19T03:54:47.041Z,-1.20
2019-01-19T03:57:24.498Z,-1.10
2019-01-19T04:00:13.990Z,-1.10
2019-01-19T04:02:55.705Z,-1.20
2019-01-19T04:05:36.198Z,-1.20
2019-01-19T04:08:24.432Z,-1.30
2019-01-19T04:10:58.604Z,-1.30
2019-01-19T04:13:45.119Z,-1.30
2019-01-19T04:16:40.935Z,-1.30
2019-01-19T04:19:21.289Z,-1.20
2019-01-19T04:21:58.497Z,-1.30
2019-01-19T04:24:29.290Z,-1.40
2019-01-19T04:26:57.814Z,-1.50
2019-01-19T04:29:26.294Z,-1.50
2019-01-19T04:31:54.814Z,-1.60
2019-01-19T04:34:23.442Z,-1.60
2019-01-19T04:36:52.385Z,-1.70
2019-01-19T04:39:20.908Z,-1.80
2019-01-19T04:41:49.437Z,-1.80
2019-01-19T04:44:17.921Z,-1.90
2019-01-19T04:46:46.447Z,-1.90
2019-01-19T04:49:14.964Z,-2.00
2019-01-19T04:51:43.522Z,-2.00
2019-01-19T04:54:12.043Z,-2.00
2019-01-19T04:56:40.498Z,-2.00
2019-01-19T04:59:09.043Z,-2.00
2019-01-19T05:01:37.492Z,-2.00
2019-01-19T05:04:06.008Z,-2.10
2019-01-19T05:06:34.724Z,-2.10
2019-01-19T05:09:04.025Z,-2.20
2019-01-19T05:11:32.485Z,-2.30
2019-01-19T05:14:01.037Z,-2.40
2019-01-19T05:16:29.485Z,-2.50
2019-01-19T05:18:57.940Z,-2.50
2019-01-19T05:21:26.901Z,-2.70
2019-01-19T05:23:55.833Z,-2.80
2019-01-19T05:26:24.359Z,-2.80
2019-01-19T05:28:52.914Z,-2.90
2019-01-19T05:31:21.368Z,-2.90
2019-01-19T05:33:49.821Z,-3.00
2019-01-19T05:36:18.298Z,-3.00
2019-01-19T05:38:46.889Z,-3.10
2019-01-19T05:41:15.344Z,-3.20
2019-01-19T05:43:43.834Z,-3.20
2019-01-19T05:46:12.361Z,-3.20
2019-01-19T05:48:40.816Z,-3.20
2019-01-19T05:51:09.377Z,-3.20
2019-01-19T05:53:37.911Z,-3.20
2019-01-19T05:56:06.433Z,-3.10
2019-01-19T05:58:34.977Z,-3.10
2019-01-19T06:01:03.503Z,-3.00
2019-01-19T06:03:31.955Z,-3.00
2019-01-19T06:06:01.526Z,-2.90
2019-01-19T06:08:29.985Z,-2.90
2019-01-19T06:10:58.433Z,-2.90
2019-01-19T06:13:26.950Z,-2.80
2019-01-19T06:15:55.539Z,-2.80
2019-01-19T06:18:23.994Z,-2.80
2019-01-19T06:20:52.478Z,-2.70
2019-01-19T06:23:21.020Z,-2.70
2019-01-19T06:25:49.565Z,-2.60
2019-01-19T06:28:18.087Z,-2.70
2019-01-19T06:30:46.537Z,-2.80
2019-01-19T06:33:15.066Z,-2.80
2019-01-19T06:35:43.561Z,-2.80
2019-01-19T06:38:12.013Z,-2.80
2019-01-19T06:40:40.501Z,-2.80
2019-01-19T06:43:08.993Z,-2.90
2019-01-19T06:45:37.521Z,-3.00
2019-01-19T06:48:06.049Z,-3.10
2019-01-19T06:50:34.661Z,-3.20
2019-01-19T06:53:03.122Z,-3.20
2019-01-19T06:55:31.718Z,-3.30
2019-01-19T06:58:00.214Z,-3.40
2019-01-19T07:00:28.665Z,-3.40
2019-01-19T07:02:57.190Z,-3.50
2019-01-19T07:05:25.669Z,-3.50
2019-01-19T07:07:54.126Z,-3.60
2019-01-19T07:10:25.453Z,-3.60
2019-01-19T07:12:53.929Z,-3.70
2019-01-19T07:15:22.460Z,-3.70
2019-01-19T07:17:50.990Z,-3.70
2019-01-19T07:20:22.125Z,-3.70
2019-01-19T07:22:50.653Z,-3.80
2019-01-19T07:25:19.183Z,-3.70
2019-01-19T07:27:47.742Z,-3.70
2019-01-19T07:30:17.141Z,-3.80
2019-01-19T07:32:46.949Z,-3.80
2019-01-19T07:35:16.265Z,-3.80
2019-01-19T07:37:44.855Z,-3.80
2019-01-19T07:40:19.881Z,-3.80
2019-01-19T07:42:50.078Z,-3.70
2019-01-19T07:45:18.610Z,-3.70
2019-01-19T07:47:47.133Z,-3.70
2019-01-19T07:50:17.858Z,-3.60
2019-01-19T07:52:46.620Z,-3.60
2019-01-19T07:55:17.777Z,-3.50
2019-01-19T07:57:46.698Z,-3.50
2019-01-19T08:00:18.093Z,-3.40
2019-01-19T08:02:46.691Z,-3.40
2019-01-19T08:05:15.347Z,-3.30
2019-01-19T08:07:43.869Z,-3.20
2019-01-19T08:10:17.522Z,-3.20
2019-01-19T08:12:46.322Z,-3.10
2019-01-19T08:15:17.595Z,-3.00
2019-01-19T08:17:46.189Z,-3.00
2019-01-19T08:20:15.502Z,-2.90
2019-01-19T08:22:44.103Z,-2.90
2019-01-19T08:25:13.598Z,-2.90
2019-01-19T08:27:42.162Z,-2.90
2019-01-19T08:30:21.713Z,-2.80
2019-01-19T08:32:50.734Z,-2.60
2019-01-19T08:35:19.329Z,-2.50
2019-01-19T08:37:48.527Z,-2.40
2019-01-19T08:40:22.945Z,-2.20
2019-01-19T08:42:53.179Z,-2.20
2019-01-19T08:45:22.102Z,-2.10
2019-01-19T08:47:52.601Z,-2.00
2019-01-19T08:50:21.121Z,-2.00
2019-01-19T08:52:49.657Z,-2.00
2019-01-19T08:55:18.289Z,-1.90
2019-01-19T08:57:46.982Z,-1.90
2019-01-19T09:00:20.750Z,-1.80
2019-01-19T09:02:49.592Z,-1.80
2019-01-19T09:05:18.314Z,-1.80
2019-01-19T09:07:46.926Z,-1.70
2019-01-19T09:10:19.835Z,-1.70
2019-01-19T09:12:48.579Z,-1.60
2019-01-19T09:15:22.608Z,-1.40
2019-01-19T09:17:51.175Z,-1.40
2019-01-19T09:20:19.777Z,-1.30
2019-01-19T09:22:49.966Z,-1.20
2019-01-19T09:25:18.549Z,-1.10
2019-01-19T09:27:47.132Z,-1.10
2019-01-19T09:30:20.885Z,-1.10
2019-01-19T09:32:49.594Z,-1.00
2019-01-19T09:35:18.772Z,-0.90
2019-01-19T09:37:47.523Z,-0.90
2019-01-19T09:40:17.233Z,-0.90
2019-01-19T09:42:46.496Z,-0.90
2019-01-19T09:45:17.019Z,-0.80
2019-01-19T09:47:45.638Z,-0.70
2019-01-19T09:50:21.721Z,-0.70
2019-01-19T09:52:50.199Z,-0.60
2019-01-19T09:55:18.723Z,-0.50
2019-01-19T09:57:47.317Z,-0.40
2019-01-19T10:00:24.305Z,-0.40
2019-01-19T10:02:52.895Z,-0.30
2019-01-19T10:05:25.824Z,-0.30
2019-01-19T10:07:54.516Z,-0.30
2019-01-19T10:10:23.042Z,-0.20
2019-01-19T10:12:51.565Z,-0.20
2019-01-19T10:15:23.726Z,0.00
2019-01-19T10:17:52.365Z,0.00
2019-01-19T10:20:23.890Z,0.00
2019-01-19T10:22:52.534Z,0.10
2019-01-19T10:25:21.124Z,0.20
2019-01-19T10:27:49.718Z,0.20
2019-01-19T10:30:21.330Z,0.20
2019-01-19T10:32:49.927Z,0.30
2019-01-19T10:35:18.513Z,0.40
2019-01-19T10:37:47.261Z,0.40
2019-01-19T10:40:17.318Z,0.40
2019-01-19T10:42:45.837Z,0.50
2019-01-19T10:45:25.758Z,0.50
2019-01-19T10:47:54.845Z,0.60
2019-01-19T10:50:23.362Z,0.60
2019-01-19T10:52:51.997Z,0.70
